sensor_id;sensor_type;location;lat;lon;timestamp;P1;durP1;ratioP1;P2;durP2;ratioP2
78382;SDS011;67668;52.294;4.692;2023-02-22T00:00:19;64.30;;;21.00;;
78382;SDS011;67668;52.294;4.692;2023-02-22T00:03:00;53.35;;;18.27;;
78382;SDS011;67668;52.294;4.692;2023-02-22T00:05:26;63.63;;;21.05;;
78382;SDS011;67668;52.294;4.692;2023-02-22T00:07:53;65.10;;;19.52;;
78382;SDS011;67668;52.294;4.692;2023-02-22T00:10:23;54.95;;;17.88;;
78382;SDS011;67668;52.294;4.692;2023-02-22T00:12:53;65.97;;;19.90;;
78382;SDS011;67668;52.294;4.692;2023-02-22T00:15:22;67.43;;;20.58;;
78382;SDS011;67668;52.294;4.692;2023-02-22T00:17:51;67.00;;;19.92;;
78382;SDS011;67668;52.294;4.692;2023-02-22T00:20:18;67.22;;;20.83;;
78382;SDS011;67668;52.294;4.692;2023-02-22T00:25:10;70.05;;;20.05;;
78382;SDS011;67668;52.294;4.692;2023-02-22T00:27:36;68.10;;;20.40;;
78382;SDS011;67668;52.294;4.692;2023-02-22T00:32:29;61.35;;;19.48;;
78382;SDS011;67668;52.294;4.692;2023-02-22T00:37:19;64.20;;;20.03;;
78382;SDS011;67668;52.294;4.692;2023-02-22T00:39:46;58.50;;;17.75;;
78382;SDS011;67668;52.294;4.692;2023-02-22T00:42:13;62.10;;;20.92;;
78382;SDS011;67668;52.294;4.692;2023-02-22T00:44:39;63.58;;;20.67;;
78382;SDS011;67668;52.294;4.692;2023-02-22T00:49:29;57.57;;;17.77;;
78382;SDS011;67668;52.294;4.692;2023-02-22T00:51:55;60.57;;;19.73;;
78382;SDS011;67668;52.294;4.692;2023-02-22T00:56:45;60.42;;;19.58;;
78382;SDS011;67668;52.294;4.692;2023-02-22T01:04:11;54.10;;;18.38;;
78382;SDS011;67668;52.294;4.692;2023-02-22T01:09:04;57.27;;;18.60;;
78382;SDS011;67668;52.294;4.692;2023-02-22T01:11:31;54.70;;;19.65;;
78382;SDS011;67668;52.294;4.692;2023-02-22T01:16:23;53.30;;;18.45;;
78382;SDS011;67668;52.294;4.692;2023-02-22T01:21:14;50.77;;;19.00;;
78382;SDS011;67668;52.294;4.692;2023-02-22T01:26:05;54.47;;;18.50;;
78382;SDS011;67668;52.294;4.692;2023-02-22T01:30:56;54.63;;;20.52;;
78382;SDS011;67668;52.294;4.692;2023-02-22T01:35:47;44.95;;;17.55;;
78382;SDS011;67668;52.294;4.692;2023-02-22T01:38:14;46.95;;;18.60;;
78382;SDS011;67668;52.294;4.692;2023-02-22T01:43:23;47.50;;;19.35;;
78382;SDS011;67668;52.294;4.692;2023-02-22T01:45:53;48.25;;;19.10;;
78382;SDS011;67668;52.294;4.692;2023-02-22T01:48:38;41.10;;;17.48;;
78382;SDS011;67668;52.294;4.692;2023-02-22T01:51:17;42.67;;;17.77;;
78382;SDS011;67668;52.294;4.692;2023-02-22T01:56:16;44.60;;;19.23;;
78382;SDS011;67668;52.294;4.692;2023-02-22T01:58:45;47.78;;;18.65;;
78382;SDS011;67668;52.294;4.692;2023-02-22T02:01:15;41.15;;;18.77;;
78382;SDS011;67668;52.294;4.692;2023-02-22T02:03:43;40.13;;;16.35;;
78382;SDS011;67668;52.294;4.692;2023-02-22T02:11:28;40.00;;;17.08;;
78382;SDS011;67668;52.294;4.692;2023-02-22T02:13:55;40.13;;;16.60;;
78382;SDS011;67668;52.294;4.692;2023-02-22T02:16:24;41.70;;;17.73;;
78382;SDS011;67668;52.294;4.692;2023-02-22T02:18:58;40.05;;;17.23;;
78382;SDS011;67668;52.294;4.692;2023-02-22T02:27:14;39.17;;;17.33;;
78382;SDS011;67668;52.294;4.692;2023-02-22T02:35:05;35.92;;;15.90;;
78382;SDS011;67668;52.294;4.692;2023-02-22T02:40:31;41.90;;;17.10;;
78382;SDS011;67668;52.294;4.692;2023-02-22T02:48:37;37.92;;;16.35;;
78382;SDS011;67668;52.294;4.692;2023-02-22T02:51:08;37.35;;;16.17;;
78382;SDS011;67668;52.294;4.692;2023-02-22T02:53:39;43.67;;;17.30;;
78382;SDS011;67668;52.294;4.692;2023-02-22T02:56:08;36.20;;;17.50;;
78382;SDS011;67668;52.294;4.692;2023-02-22T03:01:08;39.80;;;16.35;;
78382;SDS011;67668;52.294;4.692;2023-02-22T03:03:45;39.33;;;16.92;;
78382;SDS011;67668;52.294;4.692;2023-02-22T03:11:59;37.28;;;17.17;;
78382;SDS011;67668;52.294;4.692;2023-02-22T03:14:59;40.15;;;18.48;;
78382;SDS011;67668;52.294;4.692;2023-02-22T03:20:21;38.35;;;16.77;;
78382;SDS011;67668;52.294;4.692;2023-02-22T03:25:51;38.55;;;15.90;;
78382;SDS011;67668;52.294;4.692;2023-02-22T03:28:20;37.10;;;17.77;;
78382;SDS011;67668;52.294;4.692;2023-02-22T03:30:54;39.88;;;16.95;;
78382;SDS011;67668;52.294;4.692;2023-02-22T03:33:27;40.60;;;18.02;;
78382;SDS011;67668;52.294;4.692;2023-02-22T03:36:05;39.80;;;17.05;;
78382;SDS011;67668;52.294;4.692;2023-02-22T03:38:40;43.45;;;18.05;;
78382;SDS011;67668;52.294;4.692;2023-02-22T03:41:08;42.25;;;17.98;;
78382;SDS011;67668;52.294;4.692;2023-02-22T03:44:10;40.17;;;17.95;;
78382;SDS011;67668;52.294;4.692;2023-02-22T03:46:30;40.13;;;18.15;;
78382;SDS011;67668;52.294;4.692;2023-02-22T03:51:40;39.83;;;16.80;;
78382;SDS011;67668;52.294;4.692;2023-02-22T03:56:32;36.17;;;16.90;;
78382;SDS011;67668;52.294;4.692;2023-02-22T03:59:04;40.30;;;17.77;;
78382;SDS011;67668;52.294;4.692;2023-02-22T04:01:31;46.85;;;19.02;;
78382;SDS011;67668;52.294;4.692;2023-02-22T04:06:24;42.67;;;18.23;;
78382;SDS011;67668;52.294;4.692;2023-02-22T04:11:15;39.53;;;17.27;;
78382;SDS011;67668;52.294;4.692;2023-02-22T04:16:05;34.57;;;15.77;;
78382;SDS011;67668;52.294;4.692;2023-02-22T04:20:56;39.60;;;17.20;;
78382;SDS011;67668;52.294;4.692;2023-02-22T04:23:21;42.30;;;17.40;;
78382;SDS011;67668;52.294;4.692;2023-02-22T04:28:12;44.10;;;18.10;;
78382;SDS011;67668;52.294;4.692;2023-02-22T04:33:03;40.97;;;16.00;;
78382;SDS011;67668;52.294;4.692;2023-02-22T04:37:54;42.63;;;19.00;;
78382;SDS011;67668;52.294;4.692;2023-02-22T04:42:44;38.93;;;15.90;;
78382;SDS011;67668;52.294;4.692;2023-02-22T04:45:10;43.38;;;18.42;;
78382;SDS011;67668;52.294;4.692;2023-02-22T04:47:36;43.97;;;18.50;;
78382;SDS011;67668;52.294;4.692;2023-02-22T04:52:30;44.10;;;18.40;;
78382;SDS011;67668;52.294;4.692;2023-02-22T04:54:55;42.97;;;17.60;;
78382;SDS011;67668;52.294;4.692;2023-02-22T04:57:21;40.95;;;18.42;;
78382;SDS011;67668;52.294;4.692;2023-02-22T04:59:46;42.08;;;17.50;;
78382;SDS011;67668;52.294;4.692;2023-02-22T05:02:12;45.27;;;18.33;;
78382;SDS011;67668;52.294;4.692;2023-02-22T05:04:37;41.83;;;17.60;;
78382;SDS011;67668;52.294;4.692;2023-02-22T05:09:28;47.08;;;17.90;;
78382;SDS011;67668;52.294;4.692;2023-02-22T05:14:19;49.00;;;20.80;;
78382;SDS011;67668;52.294;4.692;2023-02-22T05:19:12;52.97;;;18.63;;
78382;SDS011;67668;52.294;4.692;2023-02-22T05:21:37;52.47;;;18.53;;
78382;SDS011;67668;52.294;4.692;2023-02-22T05:24:04;47.22;;;18.48;;
78382;SDS011;67668;52.294;4.692;2023-02-22T05:26:30;52.75;;;18.55;;
78382;SDS011;67668;52.294;4.692;2023-02-22T05:28:55;52.95;;;19.95;;
78382;SDS011;67668;52.294;4.692;2023-02-22T05:31:20;53.42;;;20.88;;
78382;SDS011;67668;52.294;4.692;2023-02-22T05:33:46;48.65;;;19.45;;
78382;SDS011;67668;52.294;4.692;2023-02-22T05:36:12;44.90;;;18.42;;
78382;SDS011;67668;52.294;4.692;2023-02-22T05:38:38;49.25;;;18.48;;
78382;SDS011;67668;52.294;4.692;2023-02-22T05:41:07;49.22;;;18.63;;
78382;SDS011;67668;52.294;4.692;2023-02-22T05:43:35;49.60;;;20.63;;
78382;SDS011;67668;52.294;4.692;2023-02-22T05:46:00;46.58;;;18.48;;
78382;SDS011;67668;52.294;4.692;2023-02-22T05:48:26;36.67;;;16.58;;
78382;SDS011;67668;52.294;4.692;2023-02-22T05:53:17;38.83;;;15.07;;
78382;SDS011;67668;52.294;4.692;2023-02-22T05:58:07;42.63;;;15.77;;
78382;SDS011;67668;52.294;4.692;2023-02-22T06:00:33;39.57;;;17.70;;
78382;SDS011;67668;52.294;4.692;2023-02-22T06:02:59;50.42;;;18.33;;
78382;SDS011;67668;52.294;4.692;2023-02-22T06:05:26;47.55;;;18.25;;
78382;SDS011;67668;52.294;4.692;2023-02-22T06:07:53;54.03;;;19.38;;
78382;SDS011;67668;52.294;4.692;2023-02-22T06:10:18;51.70;;;20.08;;
78382;SDS011;67668;52.294;4.692;2023-02-22T06:12:44;48.65;;;18.95;;
78382;SDS011;67668;52.294;4.692;2023-02-22T06:15:10;49.63;;;19.38;;
78382;SDS011;67668;52.294;4.692;2023-02-22T06:17:36;48.55;;;19.42;;
78382;SDS011;67668;52.294;4.692;2023-02-22T06:22:27;48.72;;;18.48;;
78382;SDS011;67668;52.294;4.692;2023-02-22T06:24:52;53.42;;;20.73;;
78382;SDS011;67668;52.294;4.692;2023-02-22T06:29:43;46.07;;;17.60;;
78382;SDS011;67668;52.294;4.692;2023-02-22T06:32:10;45.75;;;18.35;;
78382;SDS011;67668;52.294;4.692;2023-02-22T06:34:36;42.38;;;18.05;;
78382;SDS011;67668;52.294;4.692;2023-02-22T06:37:01;49.60;;;20.57;;
78382;SDS011;67668;52.294;4.692;2023-02-22T06:41:52;39.57;;;17.33;;
78382;SDS011;67668;52.294;4.692;2023-02-22T06:44:19;45.58;;;18.20;;
78382;SDS011;67668;52.294;4.692;2023-02-22T06:49:16;48.03;;;18.58;;
78382;SDS011;67668;52.294;4.692;2023-02-22T06:51:42;43.42;;;16.02;;
78382;SDS011;67668;52.294;4.692;2023-02-22T06:54:08;43.63;;;17.23;;
78382;SDS011;67668;52.294;4.692;2023-02-22T06:56:33;42.17;;;16.43;;
78382;SDS011;67668;52.294;4.692;2023-02-22T06:58:59;44.40;;;18.40;;
78382;SDS011;67668;52.294;4.692;2023-02-22T07:01:26;44.95;;;17.10;;
78382;SDS011;67668;52.294;4.692;2023-02-22T07:03:52;42.45;;;16.42;;
78382;SDS011;67668;52.294;4.692;2023-02-22T07:06:18;44.80;;;18.73;;
78382;SDS011;67668;52.294;4.692;2023-02-22T07:11:08;46.13;;;17.70;;
78382;SDS011;67668;52.294;4.692;2023-02-22T07:13:34;50.77;;;19.47;;
78382;SDS011;67668;52.294;4.692;2023-02-22T07:15:59;38.83;;;16.60;;
78382;SDS011;67668;52.294;4.692;2023-02-22T07:18:25;45.65;;;18.60;;
78382;SDS011;67668;52.294;4.692;2023-02-22T07:20:50;43.65;;;17.23;;
78382;SDS011;67668;52.294;4.692;2023-02-22T07:25:41;43.58;;;17.25;;
78382;SDS011;67668;52.294;4.692;2023-02-22T07:28:07;41.53;;;16.83;;
78382;SDS011;67668;52.294;4.692;2023-02-22T07:30:36;38.03;;;16.48;;
78382;SDS011;67668;52.294;4.692;2023-02-22T07:33:09;38.22;;;15.23;;
78382;SDS011;67668;52.294;4.692;2023-02-22T07:35:36;42.50;;;16.52;;
78382;SDS011;67668;52.294;4.692;2023-02-22T07:38:04;42.92;;;17.52;;
78382;SDS011;67668;52.294;4.692;2023-02-22T07:40:32;38.97;;;16.67;;
78382;SDS011;67668;52.294;4.692;2023-02-22T07:45:30;32.60;;;14.05;;
78382;SDS011;67668;52.294;4.692;2023-02-22T07:47:58;47.10;;;17.75;;
78382;SDS011;67668;52.294;4.692;2023-02-22T07:50:25;39.67;;;15.88;;
78382;SDS011;67668;52.294;4.692;2023-02-22T07:52:53;42.78;;;17.23;;
78382;SDS011;67668;52.294;4.692;2023-02-22T07:55:20;38.17;;;17.45;;
78382;SDS011;67668;52.294;4.692;2023-02-22T07:57:48;38.83;;;16.58;;
78382;SDS011;67668;52.294;4.692;2023-02-22T08:00:15;40.70;;;16.38;;
78382;SDS011;67668;52.294;4.692;2023-02-22T08:02:46;40.35;;;15.10;;
78382;SDS011;67668;52.294;4.692;2023-02-22T08:05:12;33.78;;;14.90;;
78382;SDS011;67668;52.294;4.692;2023-02-22T08:07:38;35.85;;;14.27;;
78382;SDS011;67668;52.294;4.692;2023-02-22T08:10:04;30.40;;;13.32;;
78382;SDS011;67668;52.294;4.692;2023-02-22T08:12:34;37.50;;;13.82;;
78382;SDS011;67668;52.294;4.692;2023-02-22T08:15:02;29.65;;;13.02;;
78382;SDS011;67668;52.294;4.692;2023-02-22T08:17:28;30.98;;;13.60;;
78382;SDS011;67668;52.294;4.692;2023-02-22T08:19:54;36.87;;;15.03;;
78382;SDS011;67668;52.294;4.692;2023-02-22T08:22:19;37.47;;;15.67;;
78382;SDS011;67668;52.294;4.692;2023-02-22T08:24:45;37.38;;;15.02;;
78382;SDS011;67668;52.294;4.692;2023-02-22T08:27:10;36.43;;;14.93;;
78382;SDS011;67668;52.294;4.692;2023-02-22T08:29:35;34.83;;;16.13;;
78382;SDS011;67668;52.294;4.692;2023-02-22T08:32:01;40.37;;;14.20;;
78382;SDS011;67668;52.294;4.692;2023-02-22T08:34:26;35.00;;;14.75;;
78382;SDS011;67668;52.294;4.692;2023-02-22T08:36:52;33.03;;;14.55;;
78382;SDS011;67668;52.294;4.692;2023-02-22T08:39:18;32.58;;;13.70;;
78382;SDS011;67668;52.294;4.692;2023-02-22T08:41:43;27.43;;;13.00;;
78382;SDS011;67668;52.294;4.692;2023-02-22T08:44:08;33.28;;;13.63;;
78382;SDS011;67668;52.294;4.692;2023-02-22T08:46:34;30.50;;;14.45;;
78382;SDS011;67668;52.294;4.692;2023-02-22T08:48:59;36.45;;;14.48;;
78382;SDS011;67668;52.294;4.692;2023-02-22T08:51:25;32.80;;;12.98;;
78382;SDS011;67668;52.294;4.692;2023-02-22T08:53:51;32.50;;;14.68;;
78382;SDS011;67668;52.294;4.692;2023-02-22T08:56:17;33.92;;;13.60;;
78382;SDS011;67668;52.294;4.692;2023-02-22T08:58:43;32.00;;;14.13;;
78382;SDS011;67668;52.294;4.692;2023-02-22T09:01:08;36.28;;;14.15;;
78382;SDS011;67668;52.294;4.692;2023-02-22T09:03:34;29.75;;;13.98;;
78382;SDS011;67668;52.294;4.692;2023-02-22T09:05:59;33.13;;;12.97;;
78382;SDS011;67668;52.294;4.692;2023-02-22T09:08:24;35.70;;;15.80;;
78382;SDS011;67668;52.294;4.692;2023-02-22T09:10:50;36.13;;;13.80;;
78382;SDS011;67668;52.294;4.692;2023-02-22T09:13:15;36.05;;;14.98;;
78382;SDS011;67668;52.294;4.692;2023-02-22T09:15:41;37.03;;;15.50;;
78382;SDS011;67668;52.294;4.692;2023-02-22T09:18:07;34.97;;;14.88;;
78382;SDS011;67668;52.294;4.692;2023-02-22T09:20:34;39.08;;;16.00;;
78382;SDS011;67668;52.294;4.692;2023-02-22T09:23:00;42.15;;;16.38;;
78382;SDS011;67668;52.294;4.692;2023-02-22T09:25:27;36.00;;;15.40;;
78382;SDS011;67668;52.294;4.692;2023-02-22T09:27:53;38.03;;;16.95;;
78382;SDS011;67668;52.294;4.692;2023-02-22T09:30:25;37.17;;;15.45;;
78382;SDS011;67668;52.294;4.692;2023-02-22T09:32:57;42.35;;;17.20;;
78382;SDS011;67668;52.294;4.692;2023-02-22T09:35:36;42.38;;;16.50;;
78382;SDS011;67668;52.294;4.692;2023-02-22T09:38:06;38.95;;;14.80;;
78382;SDS011;67668;52.294;4.692;2023-02-22T09:40:33;36.83;;;16.15;;
78382;SDS011;67668;52.294;4.692;2023-02-22T09:48:31;35.70;;;15.70;;
78382;SDS011;67668;52.294;4.692;2023-02-22T09:50:59;35.45;;;15.10;;
78382;SDS011;67668;52.294;4.692;2023-02-22T09:53:30;36.35;;;15.23;;
78382;SDS011;67668;52.294;4.692;2023-02-22T09:56:07;38.85;;;15.20;;
78382;SDS011;67668;52.294;4.692;2023-02-22T09:58:39;33.38;;;14.00;;
78382;SDS011;67668;52.294;4.692;2023-02-22T10:07:04;32.47;;;14.18;;
78382;SDS011;67668;52.294;4.692;2023-02-22T10:15:20;33.97;;;14.35;;
78382;SDS011;67668;52.294;4.692;2023-02-22T10:26:15;33.05;;;14.68;;
78382;SDS011;67668;52.294;4.692;2023-02-22T10:31:44;31.25;;;14.57;;
78382;SDS011;67668;52.294;4.692;2023-02-22T10:34:15;34.55;;;14.63;;
78382;SDS011;67668;52.294;4.692;2023-02-22T10:36:45;32.80;;;13.57;;
78382;SDS011;67668;52.294;4.692;2023-02-22T10:41:56;34.80;;;14.90;;
78382;SDS011;67668;52.294;4.692;2023-02-22T10:44:33;28.67;;;13.57;;
78382;SDS011;67668;52.294;4.692;2023-02-22T10:47:09;36.80;;;14.82;;
78382;SDS011;67668;52.294;4.692;2023-02-22T10:49:40;32.83;;;14.18;;
78382;SDS011;67668;52.294;4.692;2023-02-22T10:52:12;34.97;;;14.73;;
78382;SDS011;67668;52.294;4.692;2023-02-22T10:54:44;29.90;;;13.93;;
78382;SDS011;67668;52.294;4.692;2023-02-22T10:57:12;34.05;;;13.73;;
78382;SDS011;67668;52.294;4.692;2023-02-22T10:59:38;31.40;;;14.07;;
78382;SDS011;67668;52.294;4.692;2023-02-22T11:02:19;29.88;;;14.30;;
78382;SDS011;67668;52.294;4.692;2023-02-22T11:04:51;31.23;;;14.32;;
78382;SDS011;67668;52.294;4.692;2023-02-22T11:09:52;33.78;;;14.57;;
78382;SDS011;67668;52.294;4.692;2023-02-22T11:12:27;37.03;;;16.30;;
78382;SDS011;67668;52.294;4.692;2023-02-22T11:17:54;35.30;;;16.48;;
78382;SDS011;67668;52.294;4.692;2023-02-22T11:20:22;37.03;;;17.13;;
78382;SDS011;67668;52.294;4.692;2023-02-22T11:22:51;37.50;;;16.33;;
78382;SDS011;67668;52.294;4.692;2023-02-22T11:25:24;36.47;;;17.00;;
78382;SDS011;67668;52.294;4.692;2023-02-22T11:27:52;35.20;;;15.98;;
78382;SDS011;67668;52.294;4.692;2023-02-22T11:30:21;38.65;;;17.50;;
78382;SDS011;67668;52.294;4.692;2023-02-22T11:35:57;38.13;;;16.33;;
78382;SDS011;67668;52.294;4.692;2023-02-22T11:38:28;36.42;;;16.70;;
78382;SDS011;67668;52.294;4.692;2023-02-22T11:41:06;33.90;;;15.60;;
78382;SDS011;67668;52.294;4.692;2023-02-22T11:43:38;33.45;;;15.50;;
78382;SDS011;67668;52.294;4.692;2023-02-22T11:48:31;29.47;;;14.87;;
78382;SDS011;67668;52.294;4.692;2023-02-22T12:04:59;26.63;;;14.60;;
78382;SDS011;67668;52.294;4.692;2023-02-22T12:07:50;30.98;;;14.85;;
78382;SDS011;67668;52.294;4.692;2023-02-22T12:10:43;29.75;;;13.98;;
78382;SDS011;67668;52.294;4.692;2023-02-22T12:13:24;27.05;;;13.77;;
78382;SDS011;67668;52.294;4.692;2023-02-22T12:15:58;28.98;;;16.02;;
78382;SDS011;67668;52.294;4.692;2023-02-22T12:21:10;27.60;;;13.55;;
78382;SDS011;67668;52.294;4.692;2023-02-22T12:29:11;26.08;;;13.18;;
78382;SDS011;67668;52.294;4.692;2023-02-22T12:34:59;26.85;;;13.63;;
78382;SDS011;67668;52.294;4.692;2023-02-22T12:40:17;28.73;;;13.25;;
78382;SDS011;67668;52.294;4.692;2023-02-22T12:48:08;28.60;;;13.23;;
78382;SDS011;67668;52.294;4.692;2023-02-22T12:50:46;23.90;;;13.63;;
78382;SDS011;67668;52.294;4.692;2023-02-22T12:53:18;29.90;;;15.05;;
78382;SDS011;67668;52.294;4.692;2023-02-22T12:55:50;25.40;;;13.30;;
78382;SDS011;67668;52.294;4.692;2023-02-22T13:03:26;25.95;;;13.57;;
78382;SDS011;67668;52.294;4.692;2023-02-22T13:06:10;25.02;;;14.23;;
78382;SDS011;67668;52.294;4.692;2023-02-22T13:11:25;28.65;;;13.07;;
78382;SDS011;67668;52.294;4.692;2023-02-22T13:14:14;26.73;;;14.13;;
78382;SDS011;67668;52.294;4.692;2023-02-22T13:17:38;30.27;;;14.23;;
78382;SDS011;67668;52.294;4.692;2023-02-22T13:19:57;30.10;;;16.02;;
78382;SDS011;67668;52.294;4.692;2023-02-22T13:27:41;30.02;;;15.23;;
78382;SDS011;67668;52.294;4.692;2023-02-22T13:43:44;25.73;;;14.40;;
78382;SDS011;67668;52.294;4.692;2023-02-22T13:52:11;29.75;;;14.98;;
78382;SDS011;67668;52.294;4.692;2023-02-22T13:57:17;30.23;;;15.68;;
78382;SDS011;67668;52.294;4.692;2023-02-22T13:59:46;25.83;;;14.07;;
78382;SDS011;67668;52.294;4.692;2023-02-22T14:05:14;25.58;;;13.75;;
78382;SDS011;67668;52.294;4.692;2023-02-22T14:10:47;29.02;;;15.85;;
78382;SDS011;67668;52.294;4.692;2023-02-22T14:13:26;27.58;;;14.50;;
78382;SDS011;67668;52.294;4.692;2023-02-22T14:18:26;25.38;;;14.90;;
78382;SDS011;67668;52.294;4.692;2023-02-22T14:21:07;209.90;;;33.60;;
78382;SDS011;67668;52.294;4.692;2023-02-22T14:26:23;27.83;;;15.20;;
78382;SDS011;67668;52.294;4.692;2023-02-22T14:31:20;28.88;;;14.43;;
78382;SDS011;67668;52.294;4.692;2023-02-22T14:33:49;29.88;;;14.02;;
78382;SDS011;67668;52.294;4.692;2023-02-22T14:36:21;27.52;;;15.63;;
78382;SDS011;67668;52.294;4.692;2023-02-22T14:38:53;25.80;;;14.75;;
78382;SDS011;67668;52.294;4.692;2023-02-22T14:41:26;25.45;;;14.45;;
78382;SDS011;67668;52.294;4.692;2023-02-22T14:43:55;33.72;;;15.85;;
78382;SDS011;67668;52.294;4.692;2023-02-22T14:46:23;26.15;;;14.80;;
78382;SDS011;67668;52.294;4.692;2023-02-22T14:48:55;29.73;;;15.43;;
78382;SDS011;67668;52.294;4.692;2023-02-22T14:51:25;30.60;;;14.98;;
78382;SDS011;67668;52.294;4.692;2023-02-22T14:56:29;25.77;;;15.05;;
78382;SDS011;67668;52.294;4.692;2023-02-22T15:02:03;26.48;;;15.15;;
78382;SDS011;67668;52.294;4.692;2023-02-22T15:04:38;26.33;;;14.95;;
78382;SDS011;67668;52.294;4.692;2023-02-22T15:07:20;24.35;;;14.32;;
78382;SDS011;67668;52.294;4.692;2023-02-22T15:09:51;28.70;;;15.07;;
78382;SDS011;67668;52.294;4.692;2023-02-22T15:12:28;27.02;;;15.35;;
78382;SDS011;67668;52.294;4.692;2023-02-22T15:15:16;26.13;;;14.60;;
78382;SDS011;67668;52.294;4.692;2023-02-22T15:17:47;32.42;;;15.05;;
78382;SDS011;67668;52.294;4.692;2023-02-22T15:20:18;28.85;;;15.52;;
78382;SDS011;67668;52.294;4.692;2023-02-22T15:22:44;27.25;;;14.55;;
78382;SDS011;67668;52.294;4.692;2023-02-22T15:25:11;31.27;;;15.88;;
78382;SDS011;67668;52.294;4.692;2023-02-22T15:30:13;35.25;;;15.48;;
78382;SDS011;67668;52.294;4.692;2023-02-22T15:32:44;26.90;;;15.65;;
78382;SDS011;67668;52.294;4.692;2023-02-22T15:37:59;31.52;;;17.20;;
78382;SDS011;67668;52.294;4.692;2023-02-22T15:40:27;30.92;;;16.30;;
78382;SDS011;67668;52.294;4.692;2023-02-22T15:43:05;30.33;;;16.25;;
78382;SDS011;67668;52.294;4.692;2023-02-22T15:45:33;30.35;;;16.38;;
78382;SDS011;67668;52.294;4.692;2023-02-22T15:47:59;31.02;;;17.30;;
78382;SDS011;67668;52.294;4.692;2023-02-22T15:50:32;30.73;;;16.23;;
78382;SDS011;67668;52.294;4.692;2023-02-22T15:53:02;28.05;;;16.80;;
78382;SDS011;67668;52.294;4.692;2023-02-22T15:55:32;32.78;;;17.67;;
78382;SDS011;67668;52.294;4.692;2023-02-22T15:58:11;32.72;;;16.65;;
78382;SDS011;67668;52.294;4.692;2023-02-22T16:00:59;33.45;;;16.33;;
78382;SDS011;67668;52.294;4.692;2023-02-22T16:03:31;30.30;;;16.02;;
78382;SDS011;67668;52.294;4.692;2023-02-22T16:06:06;28.30;;;15.57;;
78382;SDS011;67668;52.294;4.692;2023-02-22T16:08:41;30.67;;;16.80;;
78382;SDS011;67668;52.294;4.692;2023-02-22T16:11:23;28.60;;;17.13;;
78382;SDS011;67668;52.294;4.692;2023-02-22T16:13:55;28.98;;;17.40;;
78382;SDS011;67668;52.294;4.692;2023-02-22T16:16:27;35.55;;;19.60;;
78382;SDS011;67668;52.294;4.692;2023-02-22T16:19:14;31.23;;;19.48;;
78382;SDS011;67668;52.294;4.692;2023-02-22T16:21:49;28.95;;;17.40;;
78382;SDS011;67668;52.294;4.692;2023-02-22T16:24:27;28.60;;;17.25;;
78382;SDS011;67668;52.294;4.692;2023-02-22T16:27:17;37.22;;;20.55;;
78382;SDS011;67668;52.294;4.692;2023-02-22T16:29:58;35.72;;;20.05;;
78382;SDS011;67668;52.294;4.692;2023-02-22T16:32:25;35.28;;;21.65;;
78382;SDS011;67668;52.294;4.692;2023-02-22T16:37:17;36.40;;;20.27;;
78382;SDS011;67668;52.294;4.692;2023-02-22T16:39:46;39.75;;;22.75;;
78382;SDS011;67668;52.294;4.692;2023-02-22T16:42:15;35.85;;;21.65;;
78382;SDS011;67668;52.294;4.692;2023-02-22T16:44:49;37.22;;;22.52;;
78382;SDS011;67668;52.294;4.692;2023-02-22T16:47:15;37.80;;;22.77;;
78382;SDS011;67668;52.294;4.692;2023-02-22T16:52:06;46.20;;;24.37;;
78382;SDS011;67668;52.294;4.692;2023-02-22T16:57:01;40.33;;;21.75;;
78382;SDS011;67668;52.294;4.692;2023-02-22T16:59:29;43.42;;;24.73;;
78382;SDS011;67668;52.294;4.692;2023-02-22T17:01:56;38.92;;;23.35;;
78382;SDS011;67668;52.294;4.692;2023-02-22T17:06:49;42.55;;;22.92;;
78382;SDS011;67668;52.294;4.692;2023-02-22T17:11:40;48.20;;;23.83;;
78382;SDS011;67668;52.294;4.692;2023-02-22T17:14:07;42.35;;;23.75;;
78382;SDS011;67668;52.294;4.692;2023-02-22T17:16:34;44.60;;;23.95;;
78382;SDS011;67668;52.294;4.692;2023-02-22T17:21:26;50.35;;;22.65;;
78382;SDS011;67668;52.294;4.692;2023-02-22T17:26:16;43.33;;;23.37;;
78382;SDS011;67668;52.294;4.692;2023-02-22T17:31:21;44.33;;;23.42;;
78382;SDS011;67668;52.294;4.692;2023-02-22T17:33:50;47.95;;;24.58;;
78382;SDS011;67668;52.294;4.692;2023-02-22T17:38:41;40.50;;;23.93;;
78382;SDS011;67668;52.294;4.692;2023-02-22T17:41:07;44.78;;;24.50;;
78382;SDS011;67668;52.294;4.692;2023-02-22T17:45:59;45.45;;;23.65;;
78382;SDS011;67668;52.294;4.692;2023-02-22T17:48:26;43.42;;;24.52;;
78382;SDS011;67668;52.294;4.692;2023-02-22T17:53:17;42.03;;;22.92;;
78382;SDS011;67668;52.294;4.692;2023-02-22T17:55:47;41.67;;;24.20;;
78382;SDS011;67668;52.294;4.692;2023-02-22T17:58:13;40.25;;;24.02;;
78382;SDS011;67668;52.294;4.692;2023-02-22T18:03:06;41.67;;;23.02;;
78382;SDS011;67668;52.294;4.692;2023-02-22T18:05:37;43.53;;;23.70;;
78382;SDS011;67668;52.294;4.692;2023-02-22T18:08:04;45.63;;;24.10;;
78382;SDS011;67668;52.294;4.692;2023-02-22T18:12:55;44.73;;;22.50;;
78382;SDS011;67668;52.294;4.692;2023-02-22T18:17:47;45.20;;;23.17;;
78382;SDS011;67668;52.294;4.692;2023-02-22T18:22:42;40.70;;;22.83;;
78382;SDS011;67668;52.294;4.692;2023-02-22T18:25:09;43.30;;;25.17;;
78382;SDS011;67668;52.294;4.692;2023-02-22T18:27:35;45.80;;;25.08;;
78382;SDS011;67668;52.294;4.692;2023-02-22T18:30:01;42.38;;;23.88;;
78382;SDS011;67668;52.294;4.692;2023-02-22T18:32:27;46.83;;;23.98;;
78382;SDS011;67668;52.294;4.692;2023-02-22T18:34:58;42.00;;;24.25;;
78382;SDS011;67668;52.294;4.692;2023-02-22T18:37:24;42.90;;;24.08;;
78382;SDS011;67668;52.294;4.692;2023-02-22T18:39:55;43.42;;;25.05;;
78382;SDS011;67668;52.294;4.692;2023-02-22T18:42:21;41.80;;;23.80;;
78382;SDS011;67668;52.294;4.692;2023-02-22T18:44:50;41.00;;;22.80;;
78382;SDS011;67668;52.294;4.692;2023-02-22T18:47:17;42.15;;;23.15;;
78382;SDS011;67668;52.294;4.692;2023-02-22T18:49:44;42.95;;;24.02;;
78382;SDS011;67668;52.294;4.692;2023-02-22T18:54:38;40.83;;;21.58;;
78382;SDS011;67668;52.294;4.692;2023-02-22T18:57:08;49.35;;;24.13;;
78382;SDS011;67668;52.294;4.692;2023-02-22T18:59:37;39.35;;;22.70;;
78382;SDS011;67668;52.294;4.692;2023-02-22T19:02:03;45.45;;;22.83;;
78382;SDS011;67668;52.294;4.692;2023-02-22T19:04:29;40.15;;;21.08;;
78382;SDS011;67668;52.294;4.692;2023-02-22T19:06:55;39.67;;;22.70;;
78382;SDS011;67668;52.294;4.692;2023-02-22T19:09:21;38.15;;;21.85;;
78382;SDS011;67668;52.294;4.692;2023-02-22T19:11:48;41.22;;;22.23;;
78382;SDS011;67668;52.294;4.692;2023-02-22T19:14:15;42.85;;;21.85;;
78382;SDS011;67668;52.294;4.692;2023-02-22T19:16:41;40.30;;;23.52;;
78382;SDS011;67668;52.294;4.692;2023-02-22T19:19:10;44.80;;;23.33;;
78382;SDS011;67668;52.294;4.692;2023-02-22T19:21:37;43.38;;;22.17;;
78382;SDS011;67668;52.294;4.692;2023-02-22T19:24:03;40.83;;;21.17;;
78382;SDS011;67668;52.294;4.692;2023-02-22T19:28:55;38.20;;;19.63;;
78382;SDS011;67668;52.294;4.692;2023-02-22T19:31:23;43.55;;;22.05;;
78382;SDS011;67668;52.294;4.692;2023-02-22T19:34:07;39.65;;;20.23;;
78382;SDS011;67668;52.294;4.692;2023-02-22T19:36:36;44.20;;;22.13;;
78382;SDS011;67668;52.294;4.692;2023-02-22T19:39:03;45.13;;;22.70;;
78382;SDS011;67668;52.294;4.692;2023-02-22T19:43:54;41.38;;;19.33;;